sensor_id;sensor_type;location;lat;lon;timestamp;temperature;humidity
21115;DHT22;10715;48.546;9.896;2023-02-15T00:01:24;-2.10;99.90
21115;DHT22;10715;48.546;9.896;2023-02-15T00:03:50;-2.10;99.90
21115;DHT22;10715;48.546;9.896;2023-02-15T00:06:16;-2.10;99.90
21115;DHT22;10715;48.546;9.896;2023-02-15T00:08:42;-2.10;99.90
21115;DHT22;10715;48.546;9.896;2023-02-15T00:11:10;-2.10;99.90
21115;DHT22;10715;48.546;9.896;2023-02-15T00:13:37;-2.10;99.90
21115;DHT22;10715;48.546;9.896;2023-02-15T00:16:05;-2.10;99.90
21115;DHT22;10715;48.546;9.896;2023-02-15T00:18:32;-2.10;99.90
21115;DHT22;10715;48.546;9.896;2023-02-15T00:20:58;-2.10;99.90
21115;DHT22;10715;48.546;9.896;2023-02-15T00:23:25;-2.10;99.90
21115;DHT22;10715;48.546;9.896;2023-02-15T00:25:51;-2.10;99.90
21115;DHT22;10715;48.546;9.896;2023-02-15T00:28:17;-2.10;99.90
21115;DHT22;10715;48.546;9.896;2023-02-15T00:30:42;-2.10;99.90
21115;DHT22;10715;48.546;9.896;2023-02-15T00:33:08;-2.10;99.90
21115;DHT22;10715;48.546;9.896;2023-02-15T00:35:33;-2.10;99.90
21115;DHT22;10715;48.546;9.896;2023-02-15T00:37:59;-2.10;99.90
21115;DHT22;10715;48.546;9.896;2023-02-15T00:40:25;-2.20;99.90
21115;DHT22;10715;48.546;9.896;2023-02-15T00:42:51;-2.20;99.90
21115;DHT22;10715;48.546;9.896;2023-02-15T00:45:16;-2.20;99.90
21115;DHT22;10715;48.546;9.896;2023-02-15T00:47:42;-2.20;99.90
21115;DHT22;10715;48.546;9.896;2023-02-15T00:50:08;-2.20;99.90
21115;DHT22;10715;48.546;9.896;2023-02-15T00:52:33;-2.20;99.90
21115;DHT22;10715;48.546;9.896;2023-02-15T00:54:59;-2.20;99.90
21115;DHT22;10715;48.546;9.896;2023-02-15T00:57:25;-2.20;99.90
21115;DHT22;10715;48.546;9.896;2023-02-15T00:59:50;-2.20;99.90
21115;DHT22;10715;48.546;9.896;2023-02-15T01:02:16;-2.20;99.90
21115;DHT22;10715;48.546;9.896;2023-02-15T01:04:42;-2.30;99.90
21115;DHT22;10715;48.546;9.896;2023-02-15T01:07:08;-2.30;99.90
21115;DHT22;10715;48.546;9.896;2023-02-15T01:09:33;-2.30;99.90
21115;DHT22;10715;48.546;9.896;2023-02-15T01:11:59;-2.30;99.90
21115;DHT22;10715;48.546;9.896;2023-02-15T01:14:25;-2.30;99.90
21115;DHT22;10715;48.546;9.896;2023-02-15T01:16:50;-2.30;99.90
21115;DHT22;10715;48.546;9.896;2023-02-15T01:19:16;-2.30;99.90
21115;DHT22;10715;48.546;9.896;2023-02-15T01:21:42;-2.30;99.90
21115;DHT22;10715;48.546;9.896;2023-02-15T01:24:14;-2.30;99.90
21115;DHT22;10715;48.546;9.896;2023-02-15T01:26:40;-2.30;99.90
21115;DHT22;10715;48.546;9.896;2023-02-15T01:29:05;-2.30;99.90
21115;DHT22;10715;48.546;9.896;2023-02-15T01:31:31;-2.30;99.90
21115;DHT22;10715;48.546;9.896;2023-02-15T01:33:57;-2.30;99.90
21115;DHT22;10715;48.546;9.896;2023-02-15T01:36:22;-2.30;99.90
21115;DHT22;10715;48.546;9.896;2023-02-15T01:38:48;-2.30;99.90
21115;DHT22;10715;48.546;9.896;2023-02-15T01:41:17;-2.30;99.90
21115;DHT22;10715;48.546;9.896;2023-02-15T01:43:53;-2.30;99.90
21115;DHT22;10715;48.546;9.896;2023-02-15T01:46:23;-2.30;99.90
21115;DHT22;10715;48.546;9.896;2023-02-15T01:49:00;-2.30;99.90
21115;DHT22;10715;48.546;9.896;2023-02-15T01:51:30;-2.30;99.90
21115;DHT22;10715;48.546;9.896;2023-02-15T01:54:05;-2.30;99.90
21115;DHT22;10715;48.546;9.896;2023-02-15T01:56:35;-2.30;99.90
21115;DHT22;10715;48.546;9.896;2023-02-15T01:59:06;-2.30;99.90
21115;DHT22;10715;48.546;9.896;2023-02-15T02:01:33;-2.30;99.90
21115;DHT22;10715;48.546;9.896;2023-02-15T02:06:32;-2.30;99.90
21115;DHT22;10715;48.546;9.896;2023-02-15T02:08:59;-2.30;99.90
21115;DHT22;10715;48.546;9.896;2023-02-15T02:11:26;-2.30;99.90
21115;DHT22;10715;48.546;9.896;2023-02-15T02:13:53;-2.30;99.90
21115;DHT22;10715;48.546;9.896;2023-02-15T02:16:21;-2.30;99.90
21115;DHT22;10715;48.546;9.896;2023-02-15T02:41:55;-2.30;99.90
21115;DHT22;10715;48.546;9.896;2023-02-15T02:44:23;-2.30;99.90
21115;DHT22;10715;48.546;9.896;2023-02-15T02:49:42;-2.30;99.90
21115;DHT22;10715;48.546;9.896;2023-02-15T02:54:59;-2.30;99.90
21115;DHT22;10715;48.546;9.896;2023-02-15T02:57:26;-2.30;99.90
21115;DHT22;10715;48.546;9.896;2023-02-15T02:59:53;-2.30;99.90
21115;DHT22;10715;48.546;9.896;2023-02-15T03:02:25;-2.30;99.90
21115;DHT22;10715;48.546;9.896;2023-02-15T03:04:57;-2.30;99.90
21115;DHT22;10715;48.546;9.896;2023-02-15T03:07:30;-2.20;99.90
21115;DHT22;10715;48.546;9.896;2023-02-15T03:09:58;-2.20;99.90
21115;DHT22;10715;48.546;9.896;2023-02-15T03:12:31;-2.30;99.90
21115;DHT22;10715;48.546;9.896;2023-02-15T03:15:06;-2.30;99.90
21115;DHT22;10715;48.546;9.896;2023-02-15T03:17:35;-2.30;99.90
21115;DHT22;10715;48.546;9.896;2023-02-15T03:20:10;-2.30;99.90
21115;DHT22;10715;48.546;9.896;2023-02-15T03:22:54;-2.30;99.90
21115;DHT22;10715;48.546;9.896;2023-02-15T03:25:24;-2.30;99.90
21115;DHT22;10715;48.546;9.896;2023-02-15T03:27:55;-2.20;99.90
21115;DHT22;10715;48.546;9.896;2023-02-15T03:30:24;-2.30;99.90
21115;DHT22;10715;48.546;9.896;2023-02-15T03:32:52;-2.30;99.90
21115;DHT22;10715;48.546;9.896;2023-02-15T03:35:23;-2.30;99.90
21115;DHT22;10715;48.546;9.896;2023-02-15T03:37:58;-2.30;99.90
21115;DHT22;10715;48.546;9.896;2023-02-15T03:40:29;-2.20;99.90
21115;DHT22;10715;48.546;9.896;2023-02-15T03:45:51;-2.20;99.90
21115;DHT22;10715;48.546;9.896;2023-02-15T03:48:27;-2.20;99.90
21115;DHT22;10715;48.546;9.896;2023-02-15T03:50:58;-2.20;99.90
21115;DHT22;10715;48.546;9.896;2023-02-15T03:53:46;-2.30;99.90
21115;DHT22;10715;48.546;9.896;2023-02-15T03:56:12;-2.20;99.90
21115;DHT22;10715;48.546;9.896;2023-02-15T03:58:38;-2.20;99.90
21115;DHT22;10715;48.546;9.896;2023-02-15T04:04:20;-2.20;99.90
21115;DHT22;10715;48.546;9.896;2023-02-15T04:06:47;-2.20;99.90
21115;DHT22;10715;48.546;9.896;2023-02-15T04:09:13;-2.20;99.90
21115;DHT22;10715;48.546;9.896;2023-02-15T04:11:58;-2.30;99.90
21115;DHT22;10715;48.546;9.896;2023-02-15T04:14:24;-2.30;99.90
21115;DHT22;10715;48.546;9.896;2023-02-15T04:17:09;-2.30;99.90
21115;DHT22;10715;48.546;9.896;2023-02-15T04:19:35;-2.30;99.90
21115;DHT22;10715;48.546;9.896;2023-02-15T04:22:20;-2.30;99.90
21115;DHT22;10715;48.546;9.896;2023-02-15T04:25:04;-2.40;99.90
21115;DHT22;10715;48.546;9.896;2023-02-15T04:27:50;-2.40;99.90
21115;DHT22;10715;48.546;9.896;2023-02-15T04:30:17;-2.40;99.90
21115;DHT22;10715;48.546;9.896;2023-02-15T04:32:44;-2.40;99.90
21115;DHT22;10715;48.546;9.896;2023-02-15T04:35:10;-2.40;99.90
21115;DHT22;10715;48.546;9.896;2023-02-15T04:37:37;-2.40;99.90
21115;DHT22;10715;48.546;9.896;2023-02-15T04:40:04;-2.50;99.90
21115;DHT22;10715;48.546;9.896;2023-02-15T04:42:30;-2.40;99.90
21115;DHT22;10715;48.546;9.896;2023-02-15T04:44:56;-2.50;99.90
21115;DHT22;10715;48.546;9.896;2023-02-15T04:47:22;-2.50;99.90
21115;DHT22;10715;48.546;9.896;2023-02-15T04:49:48;-2.50;99.90
21115;DHT22;10715;48.546;9.896;2023-02-15T04:52:14;-2.50;99.90
21115;DHT22;10715;48.546;9.896;2023-02-15T04:54:39;-2.50;99.90
21115;DHT22;10715;48.546;9.896;2023-02-15T04:57:06;-2.50;99.90
21115;DHT22;10715;48.546;9.896;2023-02-15T04:59:32;-2.50;99.90
21115;DHT22;10715;48.546;9.896;2023-02-15T05:01:58;-2.50;99.90
21115;DHT22;10715;48.546;9.896;2023-02-15T05:04:23;-2.50;99.90
21115;DHT22;10715;48.546;9.896;2023-02-15T05:06:49;-2.50;99.90
21115;DHT22;10715;48.546;9.896;2023-02-15T05:09:15;-2.50;99.90
21115;DHT22;10715;48.546;9.896;2023-02-15T05:11:41;-2.50;99.90
21115;DHT22;10715;48.546;9.896;2023-02-15T05:14:07;-2.50;99.90
21115;DHT22;10715;48.546;9.896;2023-02-15T05:16:33;-2.50;99.90
21115;DHT22;10715;48.546;9.896;2023-02-15T05:18:58;-2.50;99.90
21115;DHT22;10715;48.546;9.896;2023-02-15T05:21:24;-2.50;99.90
21115;DHT22;10715;48.546;9.896;2023-02-15T05:23:50;-2.50;99.90
21115;DHT22;10715;48.546;9.896;2023-02-15T05:26:19;-2.50;99.90
21115;DHT22;10715;48.546;9.896;2023-02-15T05:29:03;-2.50;99.90
21115;DHT22;10715;48.546;9.896;2023-02-15T05:31:31;-2.50;99.90
21115;DHT22;10715;48.546;9.896;2023-02-15T05:33:56;-2.50;99.90
21115;DHT22;10715;48.546;9.896;2023-02-15T05:36:22;-2.50;99.90
21115;DHT22;10715;48.546;9.896;2023-02-15T05:38:48;-2.50;99.90
21115;DHT22;10715;48.546;9.896;2023-02-15T05:41:14;-2.50;99.90
21115;DHT22;10715;48.546;9.896;2023-02-15T05:43:39;-2.50;99.90
21115;DHT22;10715;48.546;9.896;2023-02-15T05:46:06;-2.60;99.90
21115;DHT22;10715;48.546;9.896;2023-02-15T05:48:32;-2.60;99.90
21115;DHT22;10715;48.546;9.896;2023-02-15T05:51:05;-2.60;99.90
21115;DHT22;10715;48.546;9.896;2023-02-15T05:53:32;-2.60;99.90
21115;DHT22;10715;48.546;9.896;2023-02-15T05:56:00;-2.60;99.90
21115;DHT22;10715;48.546;9.896;2023-02-15T05:58:29;-2.60;99.90
21115;DHT22;10715;48.546;9.896;2023-02-15T06:00:55;-2.60;99.90
21115;DHT22;10715;48.546;9.896;2023-02-15T06:03:22;-2.60;99.90
21115;DHT22;10715;48.546;9.896;2023-02-15T06:05:48;-2.60;99.90
21115;DHT22;10715;48.546;9.896;2023-02-15T06:08:14;-2.60;99.90
21115;DHT22;10715;48.546;9.896;2023-02-15T06:10:39;-2.60;99.90
21115;DHT22;10715;48.546;9.896;2023-02-15T06:13:06;-2.60;99.90
21115;DHT22;10715;48.546;9.896;2023-02-15T06:15:32;-2.60;99.90
21115;DHT22;10715;48.546;9.896;2023-02-15T06:17:58;-2.60;99.90
21115;DHT22;10715;48.546;9.896;2023-02-15T06:20:24;-2.60;99.90
21115;DHT22;10715;48.546;9.896;2023-02-15T06:22:50;-2.60;99.90
21115;DHT22;10715;48.546;9.896;2023-02-15T06:25:15;-2.60;99.90
21115;DHT22;10715;48.546;9.896;2023-02-15T06:27:42;-2.60;99.90
21115;DHT22;10715;48.546;9.896;2023-02-15T06:30:08;-2.60;99.90
21115;DHT22;10715;48.546;9.896;2023-02-15T06:32:34;-2.60;99.90
21115;DHT22;10715;48.546;9.896;2023-02-15T06:35:00;-2.60;99.90
21115;DHT22;10715;48.546;9.896;2023-02-15T06:37:25;-2.60;99.90
21115;DHT22;10715;48.546;9.896;2023-02-15T06:39:51;-2.60;99.90
21115;DHT22;10715;48.546;9.896;2023-02-15T06:42:17;-2.70;99.90
21115;DHT22;10715;48.546;9.896;2023-02-15T06:44:44;-2.70;99.90
21115;DHT22;10715;48.546;9.896;2023-02-15T06:47:10;-2.70;99.90
21115;DHT22;10715;48.546;9.896;2023-02-15T06:49:36;-2.70;99.90
21115;DHT22;10715;48.546;9.896;2023-02-15T06:52:03;-2.70;99.90
21115;DHT22;10715;48.546;9.896;2023-02-15T06:54:28;-2.70;99.90
21115;DHT22;10715;48.546;9.896;2023-02-15T06:56:54;-2.70;99.90
21115;DHT22;10715;48.546;9.896;2023-02-15T06:59:20;-2.70;99.90
21115;DHT22;10715;48.546;9.896;2023-02-15T07:01:45;-2.70;99.90
21115;DHT22;10715;48.546;9.896;2023-02-15T07:04:11;-2.70;99.90
21115;DHT22;10715;48.546;9.896;2023-02-15T07:06:37;-2.70;99.90
21115;DHT22;10715;48.546;9.896;2023-02-15T07:09:03;-2.70;99.90
21115;DHT22;10715;48.546;9.896;2023-02-15T07:11:29;-2.70;99.90
21115;DHT22;10715;48.546;9.896;2023-02-15T07:14:13;-2.70;99.90
21115;DHT22;10715;48.546;9.896;2023-02-15T07:16:39;-2.70;99.90
21115;DHT22;10715;48.546;9.896;2023-02-15T07:19:05;-2.70;99.90
21115;DHT22;10715;48.546;9.896;2023-02-15T07:21:30;-2.70;99.90
21115;DHT22;10715;48.546;9.896;2023-02-15T07:23:57;-2.60;99.90
21115;DHT22;10715;48.546;9.896;2023-02-15T07:26:23;-2.60;99.90
21115;DHT22;10715;48.546;9.896;2023-02-15T07:28:49;-2.60;99.90
21115;DHT22;10715;48.546;9.896;2023-02-15T07:31:14;-2.60;99.90
21115;DHT22;10715;48.546;9.896;2023-02-15T07:33:40;-2.60;99.90
21115;DHT22;10715;48.546;9.896;2023-02-15T07:36:07;-2.60;99.90
21115;DHT22;10715;48.546;9.896;2023-02-15T07:38:36;-2.60;99.90
21115;DHT22;10715;48.546;9.896;2023-02-15T07:41:06;-2.60;99.90
21115;DHT22;10715;48.546;9.896;2023-02-15T07:43:34;-2.50;99.90
21115;DHT22;10715;48.546;9.896;2023-02-15T07:46:01;-2.50;99.90
21115;DHT22;10715;48.546;9.896;2023-02-15T07:48:27;-2.50;99.90
21115;DHT22;10715;48.546;9.896;2023-02-15T07:50:53;-2.50;99.90
21115;DHT22;10715;48.546;9.896;2023-02-15T07:53:18;-2.50;99.90
21115;DHT22;10715;48.546;9.896;2023-02-15T07:55:44;-2.50;99.90
21115;DHT22;10715;48.546;9.896;2023-02-15T07:58:10;-2.40;99.90
21115;DHT22;10715;48.546;9.896;2023-02-15T08:00:35;-2.50;99.90
21115;DHT22;10715;48.546;9.896;2023-02-15T08:03:21;-2.40;99.90
21115;DHT22;10715;48.546;9.896;2023-02-15T08:05:47;-2.40;99.90
21115;DHT22;10715;48.546;9.896;2023-02-15T08:08:13;-2.40;99.90
21115;DHT22;10715;48.546;9.896;2023-02-15T08:13:55;-2.40;99.90
21115;DHT22;10715;48.546;9.896;2023-02-15T08:16:46;-2.30;99.90
21115;DHT22;10715;48.546;9.896;2023-02-15T08:19:16;-2.30;99.90
21115;DHT22;10715;48.546;9.896;2023-02-15T08:21:47;-2.30;99.90
21115;DHT22;10715;48.546;9.896;2023-02-15T08:24:17;-2.30;99.90
21115;DHT22;10715;48.546;9.896;2023-02-15T08:26:43;-2.30;99.90
21115;DHT22;10715;48.546;9.896;2023-02-15T08:29:13;-2.20;99.90
21115;DHT22;10715;48.546;9.896;2023-02-15T08:31:39;-2.20;99.90
21115;DHT22;10715;48.546;9.896;2023-02-15T08:34:07;-2.20;99.90
21115;DHT22;10715;48.546;9.896;2023-02-15T08:36:33;-2.20;99.90
21115;DHT22;10715;48.546;9.896;2023-02-15T08:39:00;-2.20;99.90
21115;DHT22;10715;48.546;9.896;2023-02-15T08:41:34;-2.10;99.90
21115;DHT22;10715;48.546;9.896;2023-02-15T08:44:03;-2.10;99.90
21115;DHT22;10715;48.546;9.896;2023-02-15T08:46:31;-2.10;99.90
21115;DHT22;10715;48.546;9.896;2023-02-15T08:48:57;-2.10;99.90
21115;DHT22;10715;48.546;9.896;2023-02-15T08:51:26;-2.00;99.90
21115;DHT22;10715;48.546;9.896;2023-02-15T08:53:55;-2.00;99.90
21115;DHT22;10715;48.546;9.896;2023-02-15T08:56:23;-2.00;99.90
21115;DHT22;10715;48.546;9.896;2023-02-15T08:58:49;-1.90;99.90
21115;DHT22;10715;48.546;9.896;2023-02-15T09:01:17;-1.90;99.90
21115;DHT22;10715;48.546;9.896;2023-02-15T09:03:45;-1.90;99.90
21115;DHT22;10715;48.546;9.896;2023-02-15T09:06:11;-1.90;99.90
21115;DHT22;10715;48.546;9.896;2023-02-15T09:08:37;-1.80;99.90
21115;DHT22;10715;48.546;9.896;2023-02-15T09:11:20;-1.80;99.90
21115;DHT22;10715;48.546;9.896;2023-02-15T09:13:57;-1.70;99.90
21115;DHT22;10715;48.546;9.896;2023-02-15T09:16:25;-1.70;99.90
21115;DHT22;10715;48.546;9.896;2023-02-15T09:18:52;-1.70;99.90
21115;DHT22;10715;48.546;9.896;2023-02-15T09:21:20;-1.70;99.90
21115;DHT22;10715;48.546;9.896;2023-02-15T09:23:49;-1.60;99.90
21115;DHT22;10715;48.546;9.896;2023-02-15T09:26:20;-1.60;99.90
21115;DHT22;10715;48.546;9.896;2023-02-15T09:28:47;-1.60;99.90
21115;DHT22;10715;48.546;9.896;2023-02-15T09:31:18;-1.60;99.90
21115;DHT22;10715;48.546;9.896;2023-02-15T09:33:46;-1.50;99.90
21115;DHT22;10715;48.546;9.896;2023-02-15T09:36:22;-1.50;99.90
21115;DHT22;10715;48.546;9.896;2023-02-15T09:38:56;-1.40;99.90
21115;DHT22;10715;48.546;9.896;2023-02-15T09:47:06;-1.30;99.90
21115;DHT22;10715;48.546;9.896;2023-02-15T09:53:05;-1.30;99.90
21115;DHT22;10715;48.546;9.896;2023-02-15T10:13:10;-0.90;99.90
21115;DHT22;10715;48.546;9.896;2023-02-15T10:20:55;-0.80;99.90
21115;DHT22;10715;48.546;9.896;2023-02-15T10:26:42;-0.80;99.90
21115;DHT22;10715;48.546;9.896;2023-02-15T10:29:20;-0.70;99.90
21115;DHT22;10715;48.546;9.896;2023-02-15T10:31:57;-0.60;99.90
21115;DHT22;10715;48.546;9.896;2023-02-15T10:34:37;-0.60;99.90
21115;DHT22;10715;48.546;9.896;2023-02-15T10:37:08;-0.50;99.90
21115;DHT22;10715;48.546;9.896;2023-02-15T10:50:52;-0.30;99.90
21115;DHT22;10715;48.546;9.896;2023-02-15T10:54:09;-0.20;99.90
21115;DHT22;10715;48.546;9.896;2023-02-15T11:02:15;0.00;99.90
21115;DHT22;10715;48.546;9.896;2023-02-15T11:07:41;0.10;99.90
21115;DHT22;10715;48.546;9.896;2023-02-15T11:13:04;0.10;99.90
21115;DHT22;10715;48.546;9.896;2023-02-15T11:20:59;0.30;99.90
21115;DHT22;10715;48.546;9.896;2023-02-15T11:23:27;0.40;99.90
21115;DHT22;10715;48.546;9.896;2023-02-15T11:26:04;0.40;99.90
21115;DHT22;10715;48.546;9.896;2023-02-15T11:28:39;0.50;99.90
21115;DHT22;10715;48.546;9.896;2023-02-15T11:31:18;0.50;99.90
21115;DHT22;10715;48.546;9.896;2023-02-15T11:34:12;0.60;99.90
21115;DHT22;10715;48.546;9.896;2023-02-15T11:36:37;0.60;99.90
21115;DHT22;10715;48.546;9.896;2023-02-15T11:39:16;0.70;99.90
21115;DHT22;10715;48.546;9.896;2023-02-15T11:41:49;0.80;99.90
21115;DHT22;10715;48.546;9.896;2023-02-15T11:44:34;0.80;99.90
21115;DHT22;10715;48.546;9.896;2023-02-15T11:47:01;0.90;99.90
21115;DHT22;10715;48.546;9.896;2023-02-15T11:49:34;0.90;99.90
21115;DHT22;10715;48.546;9.896;2023-02-15T11:52:02;1.00;99.90
21115;DHT22;10715;48.546;9.896;2023-02-15T11:54:33;1.00;99.90
21115;DHT22;10715;48.546;9.896;2023-02-15T11:59:42;1.10;99.90
21115;DHT22;10715;48.546;9.896;2023-02-15T12:02:17;1.20;99.90
21115;DHT22;10715;48.546;9.896;2023-02-15T12:04:48;1.30;99.90
21115;DHT22;10715;48.546;9.896;2023-02-15T12:12:33;1.40;99.90
21115;DHT22;10715;48.546;9.896;2023-02-15T12:15:06;1.50;99.90
21115;DHT22;10715;48.546;9.896;2023-02-15T12:17:51;1.50;99.90
21115;DHT22;10715;48.546;9.896;2023-02-15T12:27:51;1.70;99.90
21115;DHT22;10715;48.546;9.896;2023-02-15T12:30:28;1.70;99.90
21115;DHT22;10715;48.546;9.896;2023-02-15T12:33:20;1.80;99.90
21115;DHT22;10715;48.546;9.896;2023-02-15T12:38:30;1.80;99.90
21115;DHT22;10715;48.546;9.896;2023-02-15T12:41:22;1.80;99.90
21115;DHT22;10715;48.546;9.896;2023-02-15T12:44:06;1.90;99.90
21115;DHT22;10715;48.546;9.896;2023-02-15T12:46:33;1.90;99.90
21115;DHT22;10715;48.546;9.896;2023-02-15T12:49:07;2.00;99.90
21115;DHT22;10715;48.546;9.896;2023-02-15T12:54:47;2.10;99.90
21115;DHT22;10715;48.546;9.896;2023-02-15T12:57:22;2.10;99.90
21115;DHT22;10715;48.546;9.896;2023-02-15T12:59:59;2.20;99.90
21115;DHT22;10715;48.546;9.896;2023-02-15T13:07:45;2.30;99.90
21115;DHT22;10715;48.546;9.896;2023-02-15T13:10:42;2.40;99.90
21115;DHT22;10715;48.546;9.896;2023-02-15T13:13:19;2.40;99.90
21115;DHT22;10715;48.546;9.896;2023-02-15T13:15:51;2.50;99.90
21115;DHT22;10715;48.546;9.896;2023-02-15T13:18:25;2.50;99.90
21115;DHT22;10715;48.546;9.896;2023-02-15T13:20:54;2.60;99.90
21115;DHT22;10715;48.546;9.896;2023-02-15T13:23:26;2.60;99.90
21115;DHT22;10715;48.546;9.896;2023-02-15T13:25:58;2.70;99.90
21115;DHT22;10715;48.546;9.896;2023-02-15T13:28:49;2.70;99.90
21115;DHT22;10715;48.546;9.896;2023-02-15T13:31:20;2.80;99.90
21115;DHT22;10715;48.546;9.896;2023-02-15T13:33:56;2.90;99.90
21115;DHT22;10715;48.546;9.896;2023-02-15T14:10:25;3.60;99.90
21115;DHT22;10715;48.546;9.896;2023-02-15T14:22:45;4.00;99.90
21115;DHT22;10715;48.546;9.896;2023-02-15T14:24:59;4.00;99.90
21115;DHT22;10715;48.546;9.896;2023-02-15T14:27:46;4.10;99.90
21115;DHT22;10715;48.546;9.896;2023-02-15T14:30:25;4.30;99.90
21115;DHT22;10715;48.546;9.896;2023-02-15T14:32:55;4.40;99.90
21115;DHT22;10715;48.546;9.896;2023-02-15T14:35:28;4.50;99.90
21115;DHT22;10715;48.546;9.896;2023-02-15T14:40:51;4.70;99.90
21115;DHT22;10715;48.546;9.896;2023-02-15T14:49:20;4.90;99.90
21115;DHT22;10715;48.546;9.896;2023-02-15T14:56:46;5.00;99.90
21115;DHT22;10715;48.546;9.896;2023-02-15T14:59:14;5.00;99.90
21115;DHT22;10715;48.546;9.896;2023-02-15T15:01:50;5.00;99.90
21115;DHT22;10715;48.546;9.896;2023-02-15T15:04:24;5.00;99.90
21115;DHT22;10715;48.546;9.896;2023-02-15T15:09:40;4.90;99.90
21115;DHT22;10715;48.546;9.896;2023-02-15T15:14:52;4.90;99.90
21115;DHT22;10715;48.546;9.896;2023-02-15T15:20:13;4.90;99.90
21115;DHT22;10715;48.546;9.896;2023-02-15T15:22:41;4.90;99.90
21115;DHT22;10715;48.546;9.896;2023-02-15T15:27:59;4.80;99.90
21115;DHT22;10715;48.546;9.896;2023-02-15T15:44:06;4.70;99.90
21115;DHT22;10715;48.546;9.896;2023-02-15T15:49:14;4.60;99.90
21115;DHT22;10715;48.546;9.896;2023-02-15T15:51:42;4.50;99.90
21115;DHT22;10715;48.546;9.896;2023-02-15T15:54:23;4.50;99.90
21115;DHT22;10715;48.546;9.896;2023-02-15T15:56:54;4.50;99.90
21115;DHT22;10715;48.546;9.896;2023-02-15T15:59:29;4.40;99.90
21115;DHT22;10715;48.546;9.896;2023-02-15T16:02:04;4.30;99.90
21115;DHT22;10715;48.546;9.896;2023-02-15T16:04:32;4.30;99.90
21115;DHT22;10715;48.546;9.896;2023-02-15T16:09:57;4.20;99.90
21115;DHT22;10715;48.546;9.896;2023-02-15T16:12:23;4.10;99.90
21115;DHT22;10715;48.546;9.896;2023-02-15T16:14:49;4.00;99.90
21115;DHT22;10715;48.546;9.896;2023-02-15T16:17:22;4.00;99.90
21115;DHT22;10715;48.546;9.896;2023-02-15T16:19:48;3.90;99.90
21115;DHT22;10715;48.546;9.896;2023-02-15T16:22:25;3.90;99.90
21115;DHT22;10715;48.546;9.896;2023-02-15T16:27:45;3.70;99.90
21115;DHT22;10715;48.546;9.896;2023-02-15T16:32:43;3.60;99.90
21115;DHT22;10715;48.546;9.896;2023-02-15T16:35:14;3.50;99.90
21115;DHT22;10715;48.546;9.896;2023-02-15T16:37:40;3.40;99.90
21115;DHT22;10715;48.546;9.896;2023-02-15T16:40:11;3.40;99.90
21115;DHT22;10715;48.546;9.896;2023-02-15T16:42:56;3.30;99.90
21115;DHT22;10715;48.546;9.896;2023-02-15T16:45:26;3.20;99.90
21115;DHT22;10715;48.546;9.896;2023-02-15T16:47:56;3.20;99.90
21115;DHT22;10715;48.546;9.896;2023-02-15T16:50:34;3.10;99.90
21115;DHT22;10715;48.546;9.896;2023-02-15T16:53:02;3.00;99.90
21115;DHT22;10715;48.546;9.896;2023-02-15T16:55:39;3.00;99.90
21115;DHT22;10715;48.546;9.896;2023-02-15T16:58:12;2.90;99.90
21115;DHT22;10715;48.546;9.896;2023-02-15T17:00:38;2.80;99.90
21115;DHT22;10715;48.546;9.896;2023-02-15T17:03:21;2.80;99.90
21115;DHT22;10715;48.546;9.896;2023-02-15T17:05:56;2.70;99.90
21115;DHT22;10715;48.546;9.896;2023-02-15T17:11:05;2.50;99.90
21115;DHT22;10715;48.546;9.896;2023-02-15T17:13:34;2.50;99.90
21115;DHT22;10715;48.546;9.896;2023-02-15T17:18:44;2.30;99.90
21115;DHT22;10715;48.546;9.896;2023-02-15T17:21:23;2.20;99.90
21115;DHT22;10715;48.546;9.896;2023-02-15T17:23:51;2.20;99.90
21115;DHT22;10715;48.546;9.896;2023-02-15T17:26:23;2.10;99.90
21115;DHT22;10715;48.546;9.896;2023-02-15T17:28:52;2.00;99.90
21115;DHT22;10715;48.546;9.896;2023-02-15T17:31:20;2.00;99.90
21115;DHT22;10715;48.546;9.896;2023-02-15T17:33:47;1.90;99.90
21115;DHT22;10715;48.546;9.896;2023-02-15T17:36:18;1.80;99.90
21115;DHT22;10715;48.546;9.896;2023-02-15T17:43:48;1.60;99.90
21115;DHT22;10715;48.546;9.896;2023-02-15T17:46:14;1.60;99.90
21115;DHT22;10715;48.546;9.896;2023-02-15T17:48:46;1.50;99.90
21115;DHT22;10715;48.546;9.896;2023-02-15T17:51:13;1.40;99.90
21115;DHT22;10715;48.546;9.896;2023-02-15T17:53:40;1.40;99.90
21115;DHT22;10715;48.546;9.896;2023-02-15T17:56:26;1.30;99.90
21115;DHT22;10715;48.546;9.896;2023-02-15T17:58:52;1.20;99.90
21115;DHT22;10715;48.546;9.896;2023-02-15T18:01:19;1.20;99.90
21115;DHT22;10715;48.546;9.896;2023-02-15T18:04:04;1.10;99.90
21115;DHT22;10715;48.546;9.896;2023-02-15T18:06:51;1.10;99.90
21115;DHT22;10715;48.546;9.896;2023-02-15T18:09:35;1.00;99.90
21115;DHT22;10715;48.546;9.896;2023-02-15T18:12:23;0.90;99.90
21115;DHT22;10715;48.546;9.896;2023-02-15T18:14:50;0.90;99.90
21115;DHT22;10715;48.546;9.896;2023-02-15T18:17:17;0.80;99.90
21115;DHT22;10715;48.546;9.896;2023-02-15T18:19:44;0.80;99.90
21115;DHT22;10715;48.546;9.896;2023-02-15T18:22:12;0.80;99.90
21115;DHT22;10715;48.546;9.896;2023-02-15T18:24:38;0.70;99.90
21115;DHT22;10715;48.546;9.896;2023-02-15T18:27:05;0.70;99.90
21115;DHT22;10715;48.546;9.896;2023-02-15T18:29:31;0.60;99.90
21115;DHT22;10715;48.546;9.896;2023-02-15T18:31:58;0.60;99.90
21115;DHT22;10715;48.546;9.896;2023-02-15T18:34:34;0.60;99.90
21115;DHT22;10715;48.546;9.896;2023-02-15T18:37:03;0.60;99.90
21115;DHT22;10715;48.546;9.896;2023-02-15T18:39:39;0.60;99.90
21115;DHT22;10715;48.546;9.896;2023-02-15T18:44:45;0.60;99.90
21115;DHT22;10715;48.546;9.896;2023-02-15T18:47:11;0.50;99.90
21115;DHT22;10715;48.546;9.896;2023-02-15T18:49:37;0.50;99.90
21115;DHT22;10715;48.546;9.896;2023-02-15T18:52:03;0.50;99.90
21115;DHT22;10715;48.546;9.896;2023-02-15T18:54:28;0.50;99.90
21115;DHT22;10715;48.546;9.896;2023-02-15T18:56:56;0.50;99.90
21115;DHT22;10715;48.546;9.896;2023-02-15T18:59:24;0.50;99.90
21115;DHT22;10715;48.546;9.896;2023-02-15T19:01:51;0.50;99.90
21115;DHT22;10715;48.546;9.896;2023-02-15T19:04:17;0.50;99.90
21115;DHT22;10715;48.546;9.896;2023-02-15T19:06:45;0.50;99.90
21115;DHT22;10715;48.546;9.896;2023-02-15T19:09:20;0.50;99.90
21115;DHT22;10715;48.546;9.896;2023-02-15T19:11:54;0.50;99.90
21115;DHT22;10715;48.546;9.896;2023-02-15T19:14:31;0.50;99.90
21115;DHT22;10715;48.546;9.896;2023-02-15T19:16:58;0.50;99.90
21115;DHT22;10715;48.546;9.896;2023-02-15T19:19:26;0.40;99.90
21115;DHT22;10715;48.546;9.896;2023-02-15T19:21:52;0.40;99.90
21115;DHT22;10715;48.546;9.896;2023-02-15T19:24:22;0.40;99.90
21115;DHT22;10715;48.546;9.896;2023-02-15T19:26:48;0.40;99.90
21115;DHT22;10715;48.546;9.896;2023-02-15T19:29:22;0.30;99.90
21115;DHT22;10715;48.546;9.896;2023-02-15T19:31:49;0.30;99.90
21115;DHT22;10715;48.546;9.896;2023-02-15T19:34:16;0.30;99.90
21115;DHT22;10715;48.546;9.896;2023-02-15T19:36:44;0.30;99.90
21115;DHT22;10715;48.546;9.896;2023-02-15T19:39:22;0.20;99.90
21115;DHT22;10715;48.546;9.896;2023-02-15T19:41:49;0.20;99.90
21115;DHT22;10715;48.546;9.896;2023-02-15T19:44:15;0.20;99.90
21115;DHT22;10715;48.546;9.896;2023-02-15T19:46:42;0.10;99.90
21115;DHT22;10715;48.546;9.896;2023-02-15T19:49:09;0.10;99.90
21115;DHT22;10715;48.546;9.896;2023-02-15T19:51:34;0.10;99.90